sensor_id;sensor_type;location;lat;lon;timestamp;pressure;altitude;pressure_sealevel;temperature;humidity
17785;BME280;9016;53.582;10.062;2022-12-18T00:00:06;102929.94;;;-1.85;72.90
17785;BME280;9016;53.582;10.062;2022-12-18T00:02:34;102927.34;;;-1.85;72.66
17785;BME280;9016;53.582;10.062;2022-12-18T00:05:03;102923.97;;;-1.81;72.13
17785;BME280;9016;53.582;10.062;2022-12-18T00:07:32;102926.38;;;-1.88;72.38
17785;BME280;9016;53.582;10.062;2022-12-18T00:10:00;102925.44;;;-1.90;71.92
17785;BME280;9016;53.582;10.062;2022-12-18T00:12:28;102906.03;;;-2.00;72.03
17785;BME280;9016;53.582;10.062;2022-12-18T00:14:56;102924.31;;;-2.00;72.08
17785;BME280;9016;53.582;10.062;2022-12-18T00:17:24;102910.41;;;-1.99;71.88
17785;BME280;9016;53.582;10.062;2022-12-18T00:19:52;102920.75;;;-2.04;72.33
17785;BME280;9016;53.582;10.062;2022-12-18T00:22:20;102919.75;;;-2.09;72.08
17785;BME280;9016;53.582;10.062;2022-12-18T00:24:49;102924.91;;;-2.10;72.39
17785;BME280;9016;53.582;10.062;2022-12-18T00:27:18;102932.97;;;-2.03;72.55
17785;BME280;9016;53.582;10.062;2022-12-18T00:29:46;102930.25;;;-2.07;72.06
17785;BME280;9016;53.582;10.062;2022-12-18T00:32:15;102932.00;;;-2.06;72.30
17785;BME280;9016;53.582;10.062;2022-12-18T00:34:44;102938.91;;;-2.08;72.12
17785;BME280;9016;53.582;10.062;2022-12-18T00:37:12;102950.31;;;-2.05;72.30
17785;BME280;9016;53.582;10.062;2022-12-18T00:39:49;102948.50;;;-2.09;72.26
17785;BME280;9016;53.582;10.062;2022-12-18T00:42:18;102946.53;;;-2.16;72.06
17785;BME280;9016;53.582;10.062;2022-12-18T00:45:04;102944.78;;;-2.17;72.14
17785;BME280;9016;53.582;10.062;2022-12-18T00:47:39;102942.97;;;-2.19;71.70
17785;BME280;9016;53.582;10.062;2022-12-18T00:50:08;102931.59;;;-2.21;71.86
17785;BME280;9016;53.582;10.062;2022-12-18T00:52:38;102932.41;;;-2.24;71.96
17785;BME280;9016;53.582;10.062;2022-12-18T00:55:09;102933.19;;;-2.26;71.32
17785;BME280;9016;53.582;10.062;2022-12-18T00:57:37;102942.88;;;-2.22;71.78
17785;BME280;9016;53.582;10.062;2022-12-18T01:00:11;102939.38;;;-2.23;71.52
17785;BME280;9016;53.582;10.062;2022-12-18T01:02:40;102934.81;;;-2.31;71.67
17785;BME280;9016;53.582;10.062;2022-12-18T01:05:10;102932.19;;;-2.31;71.48
17785;BME280;9016;53.582;10.062;2022-12-18T01:07:38;102931.38;;;-2.29;71.70
17785;BME280;9016;53.582;10.062;2022-12-18T01:10:11;102938.13;;;-2.37;71.82
17785;BME280;9016;53.582;10.062;2022-12-18T01:12:39;102961.53;;;-2.40;72.13
17785;BME280;9016;53.582;10.062;2022-12-18T01:15:09;102962.56;;;-2.35;72.15
17785;BME280;9016;53.582;10.062;2022-12-18T01:17:37;102962.59;;;-2.33;71.57
17785;BME280;9016;53.582;10.062;2022-12-18T01:20:07;102956.47;;;-2.34;72.07
17785;BME280;9016;53.582;10.062;2022-12-18T01:22:35;102949.25;;;-2.44;71.84
17785;BME280;9016;53.582;10.062;2022-12-18T01:25:04;102951.91;;;-2.42;71.73
17785;BME280;9016;53.582;10.062;2022-12-18T01:27:34;102948.63;;;-2.35;71.70
17785;BME280;9016;53.582;10.062;2022-12-18T01:30:03;102943.31;;;-2.38;71.72
17785;BME280;9016;53.582;10.062;2022-12-18T01:32:31;102944.97;;;-2.42;71.74
17785;BME280;9016;53.582;10.062;2022-12-18T01:34:59;102951.16;;;-2.38;71.45
17785;BME280;9016;53.582;10.062;2022-12-18T01:37:27;102947.66;;;-2.39;71.91
17785;BME280;9016;53.582;10.062;2022-12-18T01:39:55;102944.97;;;-2.42;71.34
17785;BME280;9016;53.582;10.062;2022-12-18T01:42:23;102955.09;;;-2.52;71.61
17785;BME280;9016;53.582;10.062;2022-12-18T01:45:06;102953.34;;;-2.53;71.94
17785;BME280;9016;53.582;10.062;2022-12-18T01:47:39;102960.41;;;-2.49;72.31
17785;BME280;9016;53.582;10.062;2022-12-18T01:50:14;102958.72;;;-2.47;71.63
17785;BME280;9016;53.582;10.062;2022-12-18T01:52:44;102956.16;;;-2.46;71.28
17785;BME280;9016;53.582;10.062;2022-12-18T01:55:15;102961.38;;;-2.46;71.57
17785;BME280;9016;53.582;10.062;2022-12-18T01:57:44;102968.34;;;-2.45;70.84
17785;BME280;9016;53.582;10.062;2022-12-18T02:00:17;102965.84;;;-2.42;71.10
17785;BME280;9016;53.582;10.062;2022-12-18T02:02:46;102970.94;;;-2.46;71.31
17785;BME280;9016;53.582;10.062;2022-12-18T02:05:17;102968.28;;;-2.48;71.24
17785;BME280;9016;53.582;10.062;2022-12-18T02:07:52;102967.19;;;-2.54;71.60
17785;BME280;9016;53.582;10.062;2022-12-18T02:10:27;102960.44;;;-2.48;71.40
17785;BME280;9016;53.582;10.062;2022-12-18T02:13:04;102967.47;;;-2.45;71.16
17785;BME280;9016;53.582;10.062;2022-12-18T02:15:39;102964.03;;;-2.44;70.48
17785;BME280;9016;53.582;10.062;2022-12-18T02:18:11;102959.69;;;-2.44;70.30
17785;BME280;9016;53.582;10.062;2022-12-18T02:20:43;102963.94;;;-2.47;70.19
17785;BME280;9016;53.582;10.062;2022-12-18T02:23:20;102967.44;;;-2.47;70.93
17785;BME280;9016;53.582;10.062;2022-12-18T02:26:10;102964.97;;;-2.42;70.46
17785;BME280;9016;53.582;10.062;2022-12-18T02:28:42;102970.72;;;-2.54;70.24
17785;BME280;9016;53.582;10.062;2022-12-18T02:31:14;102981.78;;;-2.62;70.99
17785;BME280;9016;53.582;10.062;2022-12-18T02:33:44;102986.41;;;-2.52;70.83
17785;BME280;9016;53.582;10.062;2022-12-18T02:36:16;102986.31;;;-2.55;70.64
17785;BME280;9016;53.582;10.062;2022-12-18T02:38:45;102993.38;;;-2.53;70.56
17785;BME280;9016;53.582;10.062;2022-12-18T02:41:16;102989.66;;;-2.61;70.81
17785;BME280;9016;53.582;10.062;2022-12-18T02:43:53;102980.91;;;-2.61;71.05
17785;BME280;9016;53.582;10.062;2022-12-18T02:46:28;102989.25;;;-2.73;71.23
17785;BME280;9016;53.582;10.062;2022-12-18T02:49:04;102989.16;;;-2.77;71.52
17785;BME280;9016;53.582;10.062;2022-12-18T02:51:40;102990.16;;;-2.72;71.69
17785;BME280;9016;53.582;10.062;2022-12-18T02:54:25;102995.41;;;-2.71;71.27
17785;BME280;9016;53.582;10.062;2022-12-18T02:57:03;102993.75;;;-2.69;70.93
17785;BME280;9016;53.582;10.062;2022-12-18T02:59:39;103003.22;;;-2.72;70.98
17785;BME280;9016;53.582;10.062;2022-12-18T03:02:17;102999.78;;;-2.71;70.62
17785;BME280;9016;53.582;10.062;2022-12-18T03:04:53;103003.13;;;-2.75;71.02
17785;BME280;9016;53.582;10.062;2022-12-18T03:07:32;103003.88;;;-2.79;70.84
17785;BME280;9016;53.582;10.062;2022-12-18T03:10:02;102996.03;;;-2.79;71.25
17785;BME280;9016;53.582;10.062;2022-12-18T03:12:35;102999.69;;;-2.73;70.50
17785;BME280;9016;53.582;10.062;2022-12-18T03:15:09;102998.88;;;-2.72;70.23
17785;BME280;9016;53.582;10.062;2022-12-18T03:17:46;103002.16;;;-2.79;70.54
17785;BME280;9016;53.582;10.062;2022-12-18T03:20:20;102999.59;;;-2.77;69.87
17785;BME280;9016;53.582;10.062;2022-12-18T03:22:55;102996.00;;;-2.81;70.89
17785;BME280;9016;53.582;10.062;2022-12-18T03:25:25;102985.34;;;-2.88;70.84
17785;BME280;9016;53.582;10.062;2022-12-18T03:27:58;102988.03;;;-2.85;70.69
17785;BME280;9016;53.582;10.062;2022-12-18T03:30:29;102999.31;;;-2.86;71.00
17785;BME280;9016;53.582;10.062;2022-12-18T03:33:02;103006.00;;;-2.94;70.60
17785;BME280;9016;53.582;10.062;2022-12-18T03:35:36;103009.53;;;-2.92;71.19
17785;BME280;9016;53.582;10.062;2022-12-18T03:38:05;103000.91;;;-2.91;71.32
17785;BME280;9016;53.582;10.062;2022-12-18T03:40:38;102998.75;;;-3.05;71.41
17785;BME280;9016;53.582;10.062;2022-12-18T03:43:17;103000.47;;;-3.05;71.13
17785;BME280;9016;53.582;10.062;2022-12-18T03:45:51;102996.00;;;-3.09;71.53
17785;BME280;9016;53.582;10.062;2022-12-18T03:48:27;102995.94;;;-3.11;72.03
17785;BME280;9016;53.582;10.062;2022-12-18T03:50:59;103001.16;;;-3.11;71.73
17785;BME280;9016;53.582;10.062;2022-12-18T03:53:34;103001.16;;;-3.11;71.51
17785;BME280;9016;53.582;10.062;2022-12-18T03:56:06;102996.75;;;-3.12;71.58
17785;BME280;9016;53.582;10.062;2022-12-18T03:58:37;102983.72;;;-3.12;71.65
17785;BME280;9016;53.582;10.062;2022-12-18T04:01:08;102991.72;;;-3.07;71.35
17785;BME280;9016;53.582;10.062;2022-12-18T04:03:39;102995.06;;;-3.11;71.43
17785;BME280;9016;53.582;10.062;2022-12-18T04:06:09;102994.06;;;-3.15;71.84
17785;BME280;9016;53.582;10.062;2022-12-18T04:08:39;102994.97;;;-3.14;71.64
17785;BME280;9016;53.582;10.062;2022-12-18T04:11:07;102994.97;;;-3.14;71.95
17785;BME280;9016;53.582;10.062;2022-12-18T04:13:37;102989.78;;;-3.13;72.01
17785;BME280;9016;53.582;10.062;2022-12-18T04:16:06;102997.69;;;-3.10;71.78
17785;BME280;9016;53.582;10.062;2022-12-18T04:18:36;103000.13;;;-3.16;71.71
17785;BME280;9016;53.582;10.062;2022-12-18T04:21:04;102989.72;;;-3.16;71.15
17785;BME280;9016;53.582;10.062;2022-12-18T04:23:32;102992.34;;;-3.14;71.44
17785;BME280;9016;53.582;10.062;2022-12-18T04:26:00;102996.63;;;-3.16;71.40
17785;BME280;9016;53.582;10.062;2022-12-18T04:28:28;102996.69;;;-3.15;71.46
17785;BME280;9016;53.582;10.062;2022-12-18T04:30:57;103000.97;;;-3.17;71.05
17785;BME280;9016;53.582;10.062;2022-12-18T04:33:25;103009.63;;;-3.18;71.42
17785;BME280;9016;53.582;10.062;2022-12-18T04:35:53;103003.59;;;-3.15;71.55
17785;BME280;9016;53.582;10.062;2022-12-18T04:38:21;103004.41;;;-3.18;71.59
17785;BME280;9016;53.582;10.062;2022-12-18T04:40:49;102999.72;;;-3.28;71.41
17785;BME280;9016;53.582;10.062;2022-12-18T04:43:17;103000.66;;;-3.26;71.46
17785;BME280;9016;53.582;10.062;2022-12-18T04:45:45;102993.06;;;-3.20;71.21
17785;BME280;9016;53.582;10.062;2022-12-18T04:48:14;102990.19;;;-3.27;71.22
17785;BME280;9016;53.582;10.062;2022-12-18T04:50:42;102996.03;;;-3.36;71.72
17785;BME280;9016;53.582;10.062;2022-12-18T04:53:10;102997.13;;;-3.28;71.72
17785;BME280;9016;53.582;10.062;2022-12-18T04:55:38;102998.75;;;-3.31;71.43
17785;BME280;9016;53.582;10.062;2022-12-18T04:58:05;102998.75;;;-3.31;71.54
17785;BME280;9016;53.582;10.062;2022-12-18T05:00:35;103005.75;;;-3.30;71.61
17785;BME280;9016;53.582;10.062;2022-12-18T05:03:03;103001.31;;;-3.33;71.39
17785;BME280;9016;53.582;10.062;2022-12-18T05:05:34;103010.63;;;-3.39;71.64
17785;BME280;9016;53.582;10.062;2022-12-18T05:08:02;103014.31;;;-3.34;71.34
17785;BME280;9016;53.582;10.062;2022-12-18T05:10:31;103015.75;;;-3.42;71.60
17785;BME280;9016;53.582;10.062;2022-12-18T05:13:03;103020.09;;;-3.43;71.68
17785;BME280;9016;53.582;10.062;2022-12-18T05:15:32;103028.78;;;-3.42;71.57
17785;BME280;9016;53.582;10.062;2022-12-18T05:18:01;103025.41;;;-3.40;71.73
17785;BME280;9016;53.582;10.062;2022-12-18T05:20:29;103023.63;;;-3.41;71.51
17785;BME280;9016;53.582;10.062;2022-12-18T05:22:58;103028.88;;;-3.39;71.53
17785;BME280;9016;53.582;10.062;2022-12-18T05:25:26;103038.28;;;-3.44;71.64
17785;BME280;9016;53.582;10.062;2022-12-18T05:27:55;103032.00;;;-3.51;71.85
17785;BME280;9016;53.582;10.062;2022-12-18T05:30:23;103031.09;;;-3.51;71.75
17785;BME280;9016;53.582;10.062;2022-12-18T05:32:51;103031.88;;;-3.54;71.91
17785;BME280;9016;53.582;10.062;2022-12-18T05:35:19;103033.53;;;-3.56;72.23
17785;BME280;9016;53.582;10.062;2022-12-18T05:37:47;103036.31;;;-3.51;71.98
17785;BME280;9016;53.582;10.062;2022-12-18T05:40:16;103039.81;;;-3.51;71.87
17785;BME280;9016;53.582;10.062;2022-12-18T05:42:44;103041.56;;;-3.50;71.69
17785;BME280;9016;53.582;10.062;2022-12-18T05:45:12;103052.00;;;-3.50;71.97
17785;BME280;9016;53.582;10.062;2022-12-18T05:47:40;103056.94;;;-3.57;71.83
17785;BME280;9016;53.582;10.062;2022-12-18T05:50:08;103057.94;;;-3.54;71.97
17785;BME280;9016;53.582;10.062;2022-12-18T05:52:36;103053.44;;;-3.58;72.25
17785;BME280;9016;53.582;10.062;2022-12-18T05:55:04;103046.81;;;-3.48;71.64
17785;BME280;9016;53.582;10.062;2022-12-18T05:57:33;103050.41;;;-3.45;71.62
17785;BME280;9016;53.582;10.062;2022-12-18T06:00:02;103051.16;;;-3.49;71.91
17785;BME280;9016;53.582;10.062;2022-12-18T06:02:30;103041.56;;;-3.50;70.93
17785;BME280;9016;53.582;10.062;2022-12-18T06:04:58;103049.38;;;-3.50;71.31
17785;BME280;9016;53.582;10.062;2022-12-18T06:07:26;103043.34;;;-3.49;71.55
17785;BME280;9016;53.582;10.062;2022-12-18T06:09:54;103048.69;;;-3.44;71.48
17785;BME280;9016;53.582;10.062;2022-12-18T06:12:22;103058.13;;;-3.48;71.45
17785;BME280;9016;53.582;10.062;2022-12-18T06:14:51;103056.97;;;-3.56;71.76
17785;BME280;9016;53.582;10.062;2022-12-18T06:17:19;103053.69;;;-3.50;71.76
17785;BME280;9016;53.582;10.062;2022-12-18T06:19:46;103054.63;;;-3.48;71.65
17785;BME280;9016;53.582;10.062;2022-12-18T06:22:14;103063.25;;;-3.51;71.47
17785;BME280;9016;53.582;10.062;2022-12-18T06:24:43;103067.00;;;-3.43;71.28
17785;BME280;9016;53.582;10.062;2022-12-18T06:27:11;103067.63;;;-3.50;71.52
17785;BME280;9016;53.582;10.062;2022-12-18T06:29:39;103062.16;;;-3.57;71.33
17785;BME280;9016;53.582;10.062;2022-12-18T06:32:08;103064.19;;;-3.49;71.51
17785;BME280;9016;53.582;10.062;2022-12-18T06:34:37;103067.31;;;-3.59;71.63
17785;BME280;9016;53.582;10.062;2022-12-18T06:37:05;103074.44;;;-3.53;71.13
17785;BME280;9016;53.582;10.062;2022-12-18T06:39:33;103076.13;;;-3.55;71.29
17785;BME280;9016;53.582;10.062;2022-12-18T06:42:01;103084.69;;;-3.58;71.25
17785;BME280;9016;53.582;10.062;2022-12-18T06:44:29;103075.13;;;-3.59;71.33
17785;BME280;9016;53.582;10.062;2022-12-18T06:46:57;103070.19;;;-3.51;70.90
17785;BME280;9016;53.582;10.062;2022-12-18T06:49:26;103064.06;;;-3.52;70.75
17785;BME280;9016;53.582;10.062;2022-12-18T06:51:56;103072.84;;;-3.50;70.73
17785;BME280;9016;53.582;10.062;2022-12-18T06:54:24;103076.13;;;-3.55;70.18
17785;BME280;9016;53.582;10.062;2022-12-18T06:56:52;103071.63;;;-3.59;70.49
17785;BME280;9016;53.582;10.062;2022-12-18T06:59:19;103082.00;;;-3.61;70.81
17785;BME280;9016;53.582;10.062;2022-12-18T07:01:47;103076.66;;;-3.65;70.89
17785;BME280;9016;53.582;10.062;2022-12-18T07:04:17;103075.97;;;-3.60;70.75
17785;BME280;9016;53.582;10.062;2022-12-18T07:06:46;103074.03;;;-3.65;71.18
17785;BME280;9016;53.582;10.062;2022-12-18T07:09:14;103068.97;;;-3.61;70.88
17785;BME280;9016;53.582;10.062;2022-12-18T07:11:42;103068.16;;;-3.60;71.02
17785;BME280;9016;53.582;10.062;2022-12-18T07:14:10;103069.03;;;-3.59;70.47
17785;BME280;9016;53.582;10.062;2022-12-18T07:16:38;103080.34;;;-3.59;70.61
17785;BME280;9016;53.582;10.062;2022-12-18T07:19:07;103086.44;;;-3.58;70.80
17785;BME280;9016;53.582;10.062;2022-12-18T07:21:35;103084.69;;;-3.58;70.76
17785;BME280;9016;53.582;10.062;2022-12-18T07:24:06;103082.78;;;-3.63;70.48
17785;BME280;9016;53.582;10.062;2022-12-18T07:26:34;103088.59;;;-3.70;70.83
17785;BME280;9016;53.582;10.062;2022-12-18T07:29:02;103095.75;;;-3.65;70.55
17785;BME280;9016;53.582;10.062;2022-12-18T07:31:30;103103.56;;;-3.65;70.89
17785;BME280;9016;53.582;10.062;2022-12-18T07:33:57;103103.75;;;-3.60;71.20
17785;BME280;9016;53.582;10.062;2022-12-18T07:36:26;103108.81;;;-3.63;71.14
17785;BME280;9016;53.582;10.062;2022-12-18T07:38:53;103109.03;;;-3.57;70.95
17785;BME280;9016;53.582;10.062;2022-12-18T07:41:23;103108.94;;;-3.60;71.24
17785;BME280;9016;53.582;10.062;2022-12-18T07:43:51;103104.69;;;-3.58;70.88
17785;BME280;9016;53.582;10.062;2022-12-18T07:46:19;103102.84;;;-3.61;70.48
17785;BME280;9016;53.582;10.062;2022-12-18T07:48:47;103109.19;;;-3.54;70.00
17785;BME280;9016;53.582;10.062;2022-12-18T07:51:16;103115.28;;;-3.52;70.09
17785;BME280;9016;53.582;10.062;2022-12-18T07:53:44;103122.03;;;-3.59;69.81
17785;BME280;9016;53.582;10.062;2022-12-18T07:56:18;103119.25;;;-3.63;70.50
17785;BME280;9016;53.582;10.062;2022-12-18T07:58:57;103120.94;;;-3.65;70.11
17785;BME280;9016;53.582;10.062;2022-12-18T08:01:26;103123.59;;;-3.64;70.51
17785;BME280;9016;53.582;10.062;2022-12-18T08:03:55;103122.66;;;-3.66;70.26
17785;BME280;9016;53.582;10.062;2022-12-18T08:06:23;103122.69;;;-3.64;70.05
17785;BME280;9016;53.582;10.062;2022-12-18T08:08:52;103117.53;;;-3.63;70.24
17785;BME280;9016;53.582;10.062;2022-12-18T08:11:22;103117.00;;;-3.54;69.72
17785;BME280;9016;53.582;10.062;2022-12-18T08:13:50;103112.78;;;-3.51;69.79
17785;BME280;9016;53.582;10.062;2022-12-18T08:16:20;103106.72;;;-3.50;69.55
17785;BME280;9016;53.582;10.062;2022-12-18T08:18:48;103104.94;;;-3.51;69.69
17785;BME280;9016;53.582;10.062;2022-12-18T08:21:20;103097.81;;;-3.56;69.71
17785;BME280;9016;53.582;10.062;2022-12-18T08:23:50;103097.91;;;-3.53;70.06
17785;BME280;9016;53.582;10.062;2022-12-18T08:26:18;103105.97;;;-3.46;69.69
17785;BME280;9016;53.582;10.062;2022-12-18T08:28:47;103099.16;;;-3.42;69.04
17785;BME280;9016;53.582;10.062;2022-12-18T08:31:16;103097.31;;;-3.45;69.66
17785;BME280;9016;53.582;10.062;2022-12-18T08:33:48;103106.22;;;-3.40;69.86
17785;BME280;9016;53.582;10.062;2022-12-18T08:36:16;103093.19;;;-3.40;69.74
17785;BME280;9016;53.582;10.062;2022-12-18T08:38:45;103096.81;;;-3.35;69.57
17785;BME280;9016;53.582;10.062;2022-12-18T08:41:14;103098.06;;;-3.24;69.50
17785;BME280;9016;53.582;10.062;2022-12-18T08:43:42;103100.75;;;-3.21;69.48
17785;BME280;9016;53.582;10.062;2022-12-18T08:46:34;103106.19;;;-3.15;68.64
17785;BME280;9016;53.582;10.062;2022-12-18T08:49:04;103113.03;;;-3.18;68.85
17785;BME280;9016;53.582;10.062;2022-12-18T08:51:33;103105.47;;;-3.11;68.66
17785;BME280;9016;53.582;10.062;2022-12-18T08:54:01;103111.59;;;-3.09;68.85
17785;BME280;9016;53.582;10.062;2022-12-18T08:56:32;103106.28;;;-3.12;68.47
17785;BME280;9016;53.582;10.062;2022-12-18T08:59:01;103096.84;;;-3.08;68.44
17785;BME280;9016;53.582;10.062;2022-12-18T09:01:29;103107.28;;;-3.08;68.25
17785;BME280;9016;53.582;10.062;2022-12-18T09:03:57;103104.00;;;-3.03;67.95
17785;BME280;9016;53.582;10.062;2022-12-18T09:06:27;103095.31;;;-3.02;68.06
17785;BME280;9016;53.582;10.062;2022-12-18T09:08:54;103103.44;;;-2.92;67.66
17785;BME280;9016;53.582;10.062;2022-12-18T09:11:24;103103.44;;;-2.92;68.46
17785;BME280;9016;53.582;10.062;2022-12-18T09:13:53;103099.38;;;-2.84;67.65
17785;BME280;9016;53.582;10.062;2022-12-18T09:16:23;103104.66;;;-2.81;68.00
17785;BME280;9016;53.582;10.062;2022-12-18T09:18:58;103103.84;;;-2.80;67.69
17785;BME280;9016;53.582;10.062;2022-12-18T09:21:30;103098.81;;;-2.74;67.44
17785;BME280;9016;53.582;10.062;2022-12-18T09:24:03;103103.09;;;-2.76;67.48
17785;BME280;9016;53.582;10.062;2022-12-18T09:26:34;103099.78;;;-2.71;67.57
17785;BME280;9016;53.582;10.062;2022-12-18T09:29:03;103109.28;;;-2.73;67.15
17785;BME280;9016;53.582;10.062;2022-12-18T09:31:31;103100.84;;;-2.66;67.48
17785;BME280;9016;53.582;10.062;2022-12-18T09:33:59;103105.41;;;-2.59;66.96
17785;BME280;9016;53.582;10.062;2022-12-18T09:36:29;103104.81;;;-2.49;66.88
17785;BME280;9016;53.582;10.062;2022-12-18T09:38:56;103111.84;;;-2.48;66.70
17785;BME280;9016;53.582;10.062;2022-12-18T09:41:42;103106.09;;;-2.36;66.46
17785;BME280;9016;53.582;10.062;2022-12-18T09:44:17;103100.19;;;-2.31;66.07
17785;BME280;9016;53.582;10.062;2022-12-18T09:46:49;103108.38;;;-2.19;65.58
17785;BME280;9016;53.582;10.062;2022-12-18T09:49:22;103104.25;;;-2.11;66.13
17785;BME280;9016;53.582;10.062;2022-12-18T09:51:56;103101.31;;;-2.21;65.63
17785;BME280;9016;53.582;10.062;2022-12-18T09:54:32;103104.81;;;-2.21;66.29
17785;BME280;9016;53.582;10.062;2022-12-18T09:57:02;103108.50;;;-2.14;66.21
17785;BME280;9016;53.582;10.062;2022-12-18T09:59:35;103106.94;;;-2.08;65.68
17785;BME280;9016;53.582;10.062;2022-12-18T10:02:18;103112.25;;;-2.05;65.93
17785;BME280;9016;53.582;10.062;2022-12-18T10:05:00;103107.41;;;-1.92;65.34
17785;BME280;9016;53.582;10.062;2022-12-18T10:07:39;103104.97;;;-1.86;65.67
17785;BME280;9016;53.582;10.062;2022-12-18T10:10:19;103107.88;;;-1.76;64.76
17785;BME280;9016;53.582;10.062;2022-12-18T10:12:57;103103.88;;;-1.62;64.54
17785;BME280;9016;53.582;10.062;2022-12-18T10:15:36;103101.53;;;-1.53;64.52
17785;BME280;9016;53.582;10.062;2022-12-18T10:18:20;103097.97;;;-1.55;64.24
17785;BME280;9016;53.582;10.062;2022-12-18T10:20:52;103100.03;;;-1.43;64.21
17785;BME280;9016;53.582;10.062;2022-12-18T10:23:26;103100.25;;;-1.36;64.08
17785;BME280;9016;53.582;10.062;2022-12-18T10:26:01;103101.41;;;-1.25;63.55
17785;BME280;9016;53.582;10.062;2022-12-18T10:28:31;103111.78;;;-1.28;64.16
17785;BME280;9016;53.582;10.062;2022-12-18T10:30:59;103107.72;;;-1.17;63.61
17785;BME280;9016;53.582;10.062;2022-12-18T10:33:29;103106.69;;;-1.22;63.28
17785;BME280;9016;53.582;10.062;2022-12-18T10:35:58;103126.03;;;-1.17;63.22
17785;BME280;9016;53.582;10.062;2022-12-18T10:38:30;103113.22;;;-1.06;63.14
17785;BME280;9016;53.582;10.062;2022-12-18T10:41:00;103114.09;;;-1.06;63.39
17785;BME280;9016;53.582;10.062;2022-12-18T10:43:29;103120.28;;;-1.04;63.11
17785;BME280;9016;53.582;10.062;2022-12-18T10:46:01;103116.03;;;-0.98;62.90
17785;BME280;9016;53.582;10.062;2022-12-18T10:48:30;103109.19;;;-0.92;62.58
17785;BME280;9016;53.582;10.062;2022-12-18T10:50:59;103111.56;;;-1.03;63.31
17785;BME280;9016;53.582;10.062;2022-12-18T10:53:41;103106.44;;;-0.98;62.76
17785;BME280;9016;53.582;10.062;2022-12-18T10:56:10;103096.91;;;-0.96;62.91
17785;BME280;9016;53.582;10.062;2022-12-18T10:58:39;103096.25;;;-0.87;63.26
17785;BME280;9016;53.582;10.062;2022-12-18T11:01:10;103081.75;;;-0.72;62.70
17785;BME280;9016;53.582;10.062;2022-12-18T11:03:40;103080.41;;;-0.55;62.22
17785;BME280;9016;53.582;10.062;2022-12-18T11:06:10;103083.25;;;-0.44;61.59
17785;BME280;9016;53.582;10.062;2022-12-18T11:08:41;103084.31;;;-0.36;61.42
17785;BME280;9016;53.582;10.062;2022-12-18T11:11:18;103092.09;;;-0.41;60.64
17785;BME280;9016;53.582;10.062;2022-12-18T11:13:55;103091.13;;;-0.44;61.45
17785;BME280;9016;53.582;10.062;2022-12-18T11:16:34;103090.75;;;-0.61;61.90
17785;BME280;9016;53.582;10.062;2022-12-18T11:19:20;103078.75;;;-0.51;61.64
17785;BME280;9016;53.582;10.062;2022-12-18T11:21:50;103084.25;;;-0.41;61.97
17785;BME280;9016;53.582;10.062;2022-12-18T11:24:24;103089.69;;;-0.32;61.82
17785;BME280;9016;53.582;10.062;2022-12-18T11:26:55;103089.63;;;-0.33;61.38
17785;BME280;9016;53.582;10.062;2022-12-18T11:29:31;103086.19;;;-0.31;61.58
17785;BME280;9016;53.582;10.062;2022-12-18T11:32:28;103067.38;;;-0.13;60.99
17785;BME280;9016;53.582;10.062;2022-12-18T11:35:03;103062.94;;;-0.16;60.93
17785;BME280;9016;53.582;10.062;2022-12-18T11:37:32;103068.25;;;-0.11;61.32
17785;BME280;9016;53.582;10.062;2022-12-18T11:40:07;103072.69;;;-0.09;60.48
17785;BME280;9016;53.582;10.062;2022-12-18T11:42:43;103065.69;;;-0.10;60.92
17785;BME280;9016;53.582;10.062;2022-12-18T11:45:31;103070.66;;;-0.22;60.41
17785;BME280;9016;53.582;10.062;2022-12-18T11:48:06;103070.47;;;-0.31;61.48
17785;BME280;9016;53.582;10.062;2022-12-18T11:50:46;103060.22;;;-0.20;61.25
17785;BME280;9016;53.582;10.062;2022-12-18T11:53:16;103063.69;;;-0.21;60.90
17785;BME280;9016;53.582;10.062;2022-12-18T11:55:54;103054.31;;;-0.12;61.45
17785;BME280;9016;53.582;10.062;2022-12-18T11:58:41;103059.72;;;-0.03;61.29
17785;BME280;9016;53.582;10.062;2022-12-18T12:01:30;103045.69;;;-0.05;61.01
17785;BME280;9016;53.582;10.062;2022-12-18T12:04:29;103039.34;;;-0.17;61.15
17785;BME280;9016;53.582;10.062;2022-12-18T12:07:07;103038.41;;;-0.21;61.25
17785;BME280;9016;53.582;10.062;2022-12-18T12:10:03;103022.72;;;-0.18;61.84
17785;BME280;9016;53.582;10.062;2022-12-18T12:12:42;103018.41;;;-0.16;61.48
17785;BME280;9016;53.582;10.062;2022-12-18T12:15:30;103008.91;;;-0.09;61.53
17785;BME280;9016;53.582;10.062;2022-12-18T12:18:08;103013.34;;;-0.07;61.52
17785;BME280;9016;53.582;10.062;2022-12-18T12:20:47;103010.09;;;0.07;61.10
17785;BME280;9016;53.582;10.062;2022-12-18T12:23:24;103001.50;;;0.15;60.53
17785;BME280;9016;53.582;10.062;2022-12-18T12:25:59;103010.31;;;0.19;60.47
17785;BME280;9016;53.582;10.062;2022-12-18T12:28:47;103006.84;;;0.20;60.19
17785;BME280;9016;53.582;10.062;2022-12-18T12:31:30;102989.31;;;0.17;60.17
17785;BME280;9016;53.582;10.062;2022-12-18T12:34:08;102986.84;;;0.25;59.81
17785;BME280;9016;53.582;10.062;2022-12-18T12:36:45;102978.78;;;0.14;60.55
17785;BME280;9016;53.582;10.062;2022-12-18T12:39:22;102974.38;;;0.13;60.07
17785;BME280;9016;53.582;10.062;2022-12-18T12:41:53;102970.13;;;0.18;59.87
17785;BME280;9016;53.582;10.062;2022-12-18T12:44:43;102963.75;;;0.04;60.38
17785;BME280;9016;53.582;10.062;2022-12-18T12:47:23;102954.34;;;0.15;60.27
17785;BME280;9016;53.582;10.062;2022-12-18T12:49:56;102945.81;;;0.28;60.27
17785;BME280;9016;53.582;10.062;2022-12-18T12:52:30;102949.34;;;0.30;59.63
17785;BME280;9016;53.582;10.062;2022-12-18T12:54:59;102944.34;;;0.44;59.45
17785;BME280;9016;53.582;10.062;2022-12-18T12:57:33;102938.06;;;0.33;59.45
17785;BME280;9016;53.582;10.062;2022-12-18T13:00:09;102934.56;;;0.34;59.05
17785;BME280;9016;53.582;10.062;2022-12-18T13:02:42;102944.97;;;0.29;59.08
17785;BME280;9016;53.582;10.062;2022-12-18T13:05:19;102949.38;;;0.32;58.98
17785;BME280;9016;53.582;10.062;2022-12-18T13:07:54;102942.28;;;0.26;59.67
17785;BME280;9016;53.582;10.062;2022-12-18T13:10:31;102939.88;;;0.37;59.55
17785;BME280;9016;53.582;10.062;2022-12-18T13:13:01;102941.78;;;0.48;59.03